sensor_id;sensor_type;location;lat;lon;timestamp;temperature;humidity
6210;DHT22;3138;52.550;13.148;2023-09-12T00:00:23;15.60;99.90
6210;DHT22;3138;52.550;13.148;2023-09-12T00:02:50;15.60;99.90
6210;DHT22;3138;52.550;13.148;2023-09-12T00:05:17;15.60;99.90
6210;DHT22;3138;52.550;13.148;2023-09-12T00:07:44;15.60;99.90
6210;DHT22;3138;52.550;13.148;2023-09-12T00:10:11;15.60;99.90
6210;DHT22;3138;52.550;13.148;2023-09-12T00:12:37;15.60;99.90
6210;DHT22;3138;52.550;13.148;2023-09-12T00:15:05;15.60;99.90
6210;DHT22;3138;52.550;13.148;2023-09-12T00:17:33;15.60;99.90
6210;DHT22;3138;52.550;13.148;2023-09-12T00:20:00;15.60;99.90
6210;DHT22;3138;52.550;13.148;2023-09-12T00:22:27;15.60;99.90
6210;DHT22;3138;52.550;13.148;2023-09-12T00:24:54;15.40;99.90
6210;DHT22;3138;52.550;13.148;2023-09-12T00:27:20;15.50;99.90
6210;DHT22;3138;52.550;13.148;2023-09-12T00:29:47;15.50;99.90
6210;DHT22;3138;52.550;13.148;2023-09-12T00:32:14;15.50;99.90
6210;DHT22;3138;52.550;13.148;2023-09-12T00:34:42;15.40;99.90
6210;DHT22;3138;52.550;13.148;2023-09-12T00:37:09;15.40;99.90
6210;DHT22;3138;52.550;13.148;2023-09-12T00:39:37;15.40;99.90
6210;DHT22;3138;52.550;13.148;2023-09-12T00:44:32;15.30;99.90
6210;DHT22;3138;52.550;13.148;2023-09-12T00:46:59;15.30;99.90
6210;DHT22;3138;52.550;13.148;2023-09-12T00:49:27;15.30;99.90
6210;DHT22;3138;52.550;13.148;2023-09-12T00:51:56;15.30;99.90
6210;DHT22;3138;52.550;13.148;2023-09-12T00:54:24;15.30;99.90
6210;DHT22;3138;52.550;13.148;2023-09-12T00:56:51;15.20;99.90
6210;DHT22;3138;52.550;13.148;2023-09-12T00:59:18;15.20;99.90
6210;DHT22;3138;52.550;13.148;2023-09-12T01:01:46;15.20;99.90
6210;DHT22;3138;52.550;13.148;2023-09-12T01:04:14;15.20;99.90
6210;DHT22;3138;52.550;13.148;2023-09-12T01:06:40;15.20;99.90
6210;DHT22;3138;52.550;13.148;2023-09-12T01:09:09;15.10;99.90
6210;DHT22;3138;52.550;13.148;2023-09-12T01:11:36;15.20;99.90
6210;DHT22;3138;52.550;13.148;2023-09-12T01:14:02;15.10;99.90
6210;DHT22;3138;52.550;13.148;2023-09-12T01:16:29;15.20;99.90
6210;DHT22;3138;52.550;13.148;2023-09-12T01:18:56;15.10;99.90
6210;DHT22;3138;52.550;13.148;2023-09-12T01:21:41;15.10;99.90
6210;DHT22;3138;52.550;13.148;2023-09-12T01:24:45;15.00;99.90
6210;DHT22;3138;52.550;13.148;2023-09-12T01:27:24;15.00;99.90
6210;DHT22;3138;52.550;13.148;2023-09-12T01:29:56;15.10;99.90
6210;DHT22;3138;52.550;13.148;2023-09-12T01:32:23;15.10;99.90
6210;DHT22;3138;52.550;13.148;2023-09-12T01:34:50;15.00;99.90
6210;DHT22;3138;52.550;13.148;2023-09-12T01:37:17;14.90;99.90
6210;DHT22;3138;52.550;13.148;2023-09-12T01:39:44;14.90;99.90
6210;DHT22;3138;52.550;13.148;2023-09-12T01:42:14;14.90;99.90
6210;DHT22;3138;52.550;13.148;2023-09-12T01:44:44;14.90;99.90
6210;DHT22;3138;52.550;13.148;2023-09-12T01:47:13;14.80;99.90
6210;DHT22;3138;52.550;13.148;2023-09-12T01:49:42;14.80;99.90
6210;DHT22;3138;52.550;13.148;2023-09-12T01:52:10;14.80;99.90
6210;DHT22;3138;52.550;13.148;2023-09-12T01:54:38;14.80;99.90
6210;DHT22;3138;52.550;13.148;2023-09-12T01:57:06;14.80;99.90
6210;DHT22;3138;52.550;13.148;2023-09-12T01:59:34;14.80;99.90
6210;DHT22;3138;52.550;13.148;2023-09-12T02:02:02;14.70;99.90
6210;DHT22;3138;52.550;13.148;2023-09-12T02:04:29;14.70;99.90
6210;DHT22;3138;52.550;13.148;2023-09-12T02:06:56;14.70;99.90
6210;DHT22;3138;52.550;13.148;2023-09-12T02:09:23;14.70;99.90
6210;DHT22;3138;52.550;13.148;2023-09-12T02:11:50;14.60;99.90
6210;DHT22;3138;52.550;13.148;2023-09-12T02:14:17;14.60;99.90
6210;DHT22;3138;52.550;13.148;2023-09-12T02:16:44;14.60;99.90
6210;DHT22;3138;52.550;13.148;2023-09-12T02:19:12;14.60;99.90
6210;DHT22;3138;52.550;13.148;2023-09-12T02:21:39;14.60;99.90
6210;DHT22;3138;52.550;13.148;2023-09-12T02:24:06;14.50;99.90
6210;DHT22;3138;52.550;13.148;2023-09-12T02:26:33;14.50;99.90
6210;DHT22;3138;52.550;13.148;2023-09-12T02:29:02;14.50;99.90
6210;DHT22;3138;52.550;13.148;2023-09-12T02:31:29;14.50;99.90
6210;DHT22;3138;52.550;13.148;2023-09-12T02:33:56;14.50;99.90
6210;DHT22;3138;52.550;13.148;2023-09-12T02:36:24;14.60;99.90
6210;DHT22;3138;52.550;13.148;2023-09-12T02:38:51;14.60;99.90
6210;DHT22;3138;52.550;13.148;2023-09-12T02:41:18;14.70;99.90
6210;DHT22;3138;52.550;13.148;2023-09-12T02:43:45;14.70;99.90
6210;DHT22;3138;52.550;13.148;2023-09-12T02:46:11;14.70;99.90
6210;DHT22;3138;52.550;13.148;2023-09-12T02:48:38;14.60;99.90
6210;DHT22;3138;52.550;13.148;2023-09-12T02:51:05;14.50;99.90
6210;DHT22;3138;52.550;13.148;2023-09-12T02:53:33;14.50;99.90
6210;DHT22;3138;52.550;13.148;2023-09-12T02:56:00;14.50;99.90
6210;DHT22;3138;52.550;13.148;2023-09-12T02:58:27;14.50;99.90
6210;DHT22;3138;52.550;13.148;2023-09-12T03:00:54;14.50;99.90
6210;DHT22;3138;52.550;13.148;2023-09-12T03:03:20;14.40;99.90
6210;DHT22;3138;52.550;13.148;2023-09-12T03:05:47;14.40;99.90
6210;DHT22;3138;52.550;13.148;2023-09-12T03:08:14;14.40;99.90
6210;DHT22;3138;52.550;13.148;2023-09-12T03:10:42;14.30;99.90
6210;DHT22;3138;52.550;13.148;2023-09-12T03:13:11;14.20;99.90
6210;DHT22;3138;52.550;13.148;2023-09-12T03:15:38;14.30;99.90
6210;DHT22;3138;52.550;13.148;2023-09-12T03:18:09;14.20;99.90
6210;DHT22;3138;52.550;13.148;2023-09-12T03:20:38;14.20;99.90
6210;DHT22;3138;52.550;13.148;2023-09-12T03:23:05;14.20;99.90
6210;DHT22;3138;52.550;13.148;2023-09-12T03:25:35;14.20;99.90
6210;DHT22;3138;52.550;13.148;2023-09-12T03:28:04;14.20;99.90
6210;DHT22;3138;52.550;13.148;2023-09-12T03:30:32;14.20;99.90
6210;DHT22;3138;52.550;13.148;2023-09-12T03:32:59;14.20;99.90
6210;DHT22;3138;52.550;13.148;2023-09-12T03:35:26;14.10;99.90
6210;DHT22;3138;52.550;13.148;2023-09-12T03:37:53;14.10;99.90
6210;DHT22;3138;52.550;13.148;2023-09-12T03:40:20;14.00;99.90
6210;DHT22;3138;52.550;13.148;2023-09-12T03:42:47;14.10;99.90
6210;DHT22;3138;52.550;13.148;2023-09-12T03:45:15;14.10;99.90
6210;DHT22;3138;52.550;13.148;2023-09-12T03:47:42;14.10;99.90
6210;DHT22;3138;52.550;13.148;2023-09-12T03:50:12;14.10;99.90
6210;DHT22;3138;52.550;13.148;2023-09-12T03:52:39;14.00;99.90
6210;DHT22;3138;52.550;13.148;2023-09-12T03:55:06;14.00;99.90
6210;DHT22;3138;52.550;13.148;2023-09-12T03:57:33;14.10;99.90
6210;DHT22;3138;52.550;13.148;2023-09-12T04:00:00;14.10;99.90
6210;DHT22;3138;52.550;13.148;2023-09-12T04:02:32;14.00;99.90
6210;DHT22;3138;52.550;13.148;2023-09-12T04:04:59;14.00;99.90
6210;DHT22;3138;52.550;13.148;2023-09-12T04:07:26;14.00;99.90
6210;DHT22;3138;52.550;13.148;2023-09-12T04:09:53;13.90;99.90
6210;DHT22;3138;52.550;13.148;2023-09-12T04:12:19;13.90;99.90
6210;DHT22;3138;52.550;13.148;2023-09-12T04:14:48;14.00;99.90
6210;DHT22;3138;52.550;13.148;2023-09-12T04:17:15;13.90;99.90
6210;DHT22;3138;52.550;13.148;2023-09-12T04:19:44;13.90;99.90
6210;DHT22;3138;52.550;13.148;2023-09-12T04:22:10;13.90;99.90
6210;DHT22;3138;52.550;13.148;2023-09-12T04:24:37;13.90;99.90
6210;DHT22;3138;52.550;13.148;2023-09-12T04:27:04;13.90;99.90
6210;DHT22;3138;52.550;13.148;2023-09-12T04:29:32;13.90;99.90
6210;DHT22;3138;52.550;13.148;2023-09-12T04:32:01;13.90;99.90
6210;DHT22;3138;52.550;13.148;2023-09-12T04:34:28;13.90;99.90
6210;DHT22;3138;52.550;13.148;2023-09-12T04:36:56;13.90;99.90
6210;DHT22;3138;52.550;13.148;2023-09-12T04:39:23;14.00;99.90
6210;DHT22;3138;52.550;13.148;2023-09-12T04:41:50;14.10;99.90
6210;DHT22;3138;52.550;13.148;2023-09-12T04:44:16;14.00;99.90
6210;DHT22;3138;52.550;13.148;2023-09-12T04:46:43;14.00;99.90
6210;DHT22;3138;52.550;13.148;2023-09-12T04:49:10;14.20;99.90
6210;DHT22;3138;52.550;13.148;2023-09-12T04:51:37;14.10;99.90
6210;DHT22;3138;52.550;13.148;2023-09-12T04:54:05;14.30;99.90
6210;DHT22;3138;52.550;13.148;2023-09-12T04:56:32;14.30;99.90
6210;DHT22;3138;52.550;13.148;2023-09-12T04:58:59;14.30;99.90
6210;DHT22;3138;52.550;13.148;2023-09-12T05:01:26;14.30;99.90
6210;DHT22;3138;52.550;13.148;2023-09-12T05:03:53;14.30;99.90
6210;DHT22;3138;52.550;13.148;2023-09-12T05:06:20;14.30;99.90
6210;DHT22;3138;52.550;13.148;2023-09-12T05:08:46;14.40;99.90
6210;DHT22;3138;52.550;13.148;2023-09-12T05:11:14;14.50;99.90
6210;DHT22;3138;52.550;13.148;2023-09-12T05:13:42;14.60;99.90
6210;DHT22;3138;52.550;13.148;2023-09-12T05:16:08;14.70;99.90
6210;DHT22;3138;52.550;13.148;2023-09-12T05:18:35;14.90;99.90
6210;DHT22;3138;52.550;13.148;2023-09-12T05:21:02;15.00;99.90
6210;DHT22;3138;52.550;13.148;2023-09-12T05:23:29;15.20;99.90
6210;DHT22;3138;52.550;13.148;2023-09-12T05:25:56;15.30;99.90
6210;DHT22;3138;52.550;13.148;2023-09-12T05:28:24;15.40;99.90
6210;DHT22;3138;52.550;13.148;2023-09-12T05:30:51;15.50;99.90
6210;DHT22;3138;52.550;13.148;2023-09-12T05:33:18;15.60;99.90
6210;DHT22;3138;52.550;13.148;2023-09-12T05:35:44;15.70;99.90
6210;DHT22;3138;52.550;13.148;2023-09-12T05:38:11;15.90;99.90
6210;DHT22;3138;52.550;13.148;2023-09-12T05:40:38;16.00;99.90
6210;DHT22;3138;52.550;13.148;2023-09-12T05:43:05;16.10;99.90
6210;DHT22;3138;52.550;13.148;2023-09-12T05:45:33;16.20;99.90
6210;DHT22;3138;52.550;13.148;2023-09-12T05:48:00;16.30;99.90
6210;DHT22;3138;52.550;13.148;2023-09-12T05:50:28;16.30;99.90
6210;DHT22;3138;52.550;13.148;2023-09-12T05:52:55;16.40;99.90
6210;DHT22;3138;52.550;13.148;2023-09-12T05:55:22;16.50;99.90
6210;DHT22;3138;52.550;13.148;2023-09-12T05:57:49;16.50;99.90
6210;DHT22;3138;52.550;13.148;2023-09-12T06:00:18;16.70;99.90
6210;DHT22;3138;52.550;13.148;2023-09-12T06:02:47;16.90;99.90
6210;DHT22;3138;52.550;13.148;2023-09-12T06:05:14;17.20;99.90
6210;DHT22;3138;52.550;13.148;2023-09-12T06:07:41;17.50;99.90
6210;DHT22;3138;52.550;13.148;2023-09-12T06:10:09;17.70;99.90
6210;DHT22;3138;52.550;13.148;2023-09-12T06:12:36;17.90;99.90
6210;DHT22;3138;52.550;13.148;2023-09-12T06:15:03;18.20;99.90
6210;DHT22;3138;52.550;13.148;2023-09-12T06:17:31;18.30;99.90
6210;DHT22;3138;52.550;13.148;2023-09-12T06:19:59;18.40;99.90
6210;DHT22;3138;52.550;13.148;2023-09-12T06:22:26;18.50;99.90
6210;DHT22;3138;52.550;13.148;2023-09-12T06:24:53;18.70;99.90
6210;DHT22;3138;52.550;13.148;2023-09-12T06:27:20;18.80;99.90
6210;DHT22;3138;52.550;13.148;2023-09-12T06:29:47;19.10;99.90
6210;DHT22;3138;52.550;13.148;2023-09-12T06:32:15;19.30;99.90
6210;DHT22;3138;52.550;13.148;2023-09-12T06:34:42;19.40;99.90
6210;DHT22;3138;52.550;13.148;2023-09-12T06:37:13;19.30;99.90
6210;DHT22;3138;52.550;13.148;2023-09-12T06:39:39;19.20;99.90
6210;DHT22;3138;52.550;13.148;2023-09-12T06:42:07;19.50;99.90
6210;DHT22;3138;52.550;13.148;2023-09-12T06:44:34;19.60;99.90
6210;DHT22;3138;52.550;13.148;2023-09-12T06:47:03;19.80;99.90
6210;DHT22;3138;52.550;13.148;2023-09-12T06:49:30;20.10;99.90
6210;DHT22;3138;52.550;13.148;2023-09-12T06:51:57;20.10;99.90
6210;DHT22;3138;52.550;13.148;2023-09-12T06:54:26;20.00;99.90
6210;DHT22;3138;52.550;13.148;2023-09-12T06:56:52;20.00;99.90
6210;DHT22;3138;52.550;13.148;2023-09-12T06:59:19;20.10;99.90
6210;DHT22;3138;52.550;13.148;2023-09-12T07:01:46;20.40;99.90
6210;DHT22;3138;52.550;13.148;2023-09-12T07:04:13;20.60;99.90
6210;DHT22;3138;52.550;13.148;2023-09-12T07:06:40;20.90;99.90
6210;DHT22;3138;52.550;13.148;2023-09-12T07:09:08;21.20;99.90
6210;DHT22;3138;52.550;13.148;2023-09-12T07:11:38;21.10;99.90
6210;DHT22;3138;52.550;13.148;2023-09-12T07:14:05;21.20;99.90
6210;DHT22;3138;52.550;13.148;2023-09-12T07:16:32;21.50;99.90
6210;DHT22;3138;52.550;13.148;2023-09-12T07:18:59;21.60;99.90
6210;DHT22;3138;52.550;13.148;2023-09-12T07:21:25;21.80;99.90
6210;DHT22;3138;52.550;13.148;2023-09-12T07:23:52;21.70;99.90
6210;DHT22;3138;52.550;13.148;2023-09-12T07:26:19;21.90;99.90
6210;DHT22;3138;52.550;13.148;2023-09-12T07:28:47;21.80;99.90
6210;DHT22;3138;52.550;13.148;2023-09-12T07:31:14;22.10;99.90
6210;DHT22;3138;52.550;13.148;2023-09-12T07:33:41;22.20;99.90
6210;DHT22;3138;52.550;13.148;2023-09-12T07:36:08;22.20;99.90
6210;DHT22;3138;52.550;13.148;2023-09-12T07:38:34;22.50;99.90
6210;DHT22;3138;52.550;13.148;2023-09-12T07:41:02;22.80;99.90
6210;DHT22;3138;52.550;13.148;2023-09-12T07:43:29;23.00;99.90
6210;DHT22;3138;52.550;13.148;2023-09-12T07:45:58;22.80;99.90
6210;DHT22;3138;52.550;13.148;2023-09-12T07:48:25;23.10;99.90
6210;DHT22;3138;52.550;13.148;2023-09-12T07:50:51;23.30;99.90
6210;DHT22;3138;52.550;13.148;2023-09-12T07:53:18;23.50;99.90
6210;DHT22;3138;52.550;13.148;2023-09-12T07:55:45;23.50;99.90
6210;DHT22;3138;52.550;13.148;2023-09-12T07:58:13;23.50;99.90
6210;DHT22;3138;52.550;13.148;2023-09-12T08:00:40;23.60;99.90
6210;DHT22;3138;52.550;13.148;2023-09-12T08:03:08;23.70;99.90
6210;DHT22;3138;52.550;13.148;2023-09-12T08:05:35;23.60;99.90
6210;DHT22;3138;52.550;13.148;2023-09-12T08:08:02;23.80;99.90
6210;DHT22;3138;52.550;13.148;2023-09-12T08:10:29;23.80;99.90
6210;DHT22;3138;52.550;13.148;2023-09-12T08:12:56;23.90;99.90
6210;DHT22;3138;52.550;13.148;2023-09-12T08:15:23;24.20;99.90
6210;DHT22;3138;52.550;13.148;2023-09-12T08:17:50;24.60;99.90
6210;DHT22;3138;52.550;13.148;2023-09-12T08:20:20;24.70;99.90
6210;DHT22;3138;52.550;13.148;2023-09-12T08:22:47;24.70;99.90
6210;DHT22;3138;52.550;13.148;2023-09-12T08:25:14;24.50;99.90
6210;DHT22;3138;52.550;13.148;2023-09-12T08:27:41;24.60;99.90
6210;DHT22;3138;52.550;13.148;2023-09-12T08:30:10;24.90;99.90
6210;DHT22;3138;52.550;13.148;2023-09-12T08:32:37;24.90;99.90
6210;DHT22;3138;52.550;13.148;2023-09-12T08:35:06;24.90;99.90
6210;DHT22;3138;52.550;13.148;2023-09-12T08:37:34;25.00;99.90
6210;DHT22;3138;52.550;13.148;2023-09-12T08:40:01;25.20;99.90
6210;DHT22;3138;52.550;13.148;2023-09-12T08:42:33;25.10;99.90
6210;DHT22;3138;52.550;13.148;2023-09-12T08:45:08;25.30;99.90
6210;DHT22;3138;52.550;13.148;2023-09-12T08:47:39;25.60;99.90
6210;DHT22;3138;52.550;13.148;2023-09-12T08:50:09;25.90;99.90
6210;DHT22;3138;52.550;13.148;2023-09-12T08:52:39;25.60;99.90
6210;DHT22;3138;52.550;13.148;2023-09-12T08:55:07;25.40;99.90
6210;DHT22;3138;52.550;13.148;2023-09-12T08:57:36;25.40;99.90
6210;DHT22;3138;52.550;13.148;2023-09-12T09:00:05;25.40;99.90
6210;DHT22;3138;52.550;13.148;2023-09-12T09:02:34;25.70;99.90
6210;DHT22;3138;52.550;13.148;2023-09-12T09:05:02;25.50;99.90
6210;DHT22;3138;52.550;13.148;2023-09-12T09:07:32;25.60;99.90
6210;DHT22;3138;52.550;13.148;2023-09-12T09:10:01;25.70;99.90
6210;DHT22;3138;52.550;13.148;2023-09-12T09:12:29;25.70;99.90
6210;DHT22;3138;52.550;13.148;2023-09-12T09:14:56;25.70;99.90
6210;DHT22;3138;52.550;13.148;2023-09-12T09:17:23;25.50;99.90
6210;DHT22;3138;52.550;13.148;2023-09-12T09:19:50;25.20;99.90
6210;DHT22;3138;52.550;13.148;2023-09-12T09:22:17;25.50;99.90
6210;DHT22;3138;52.550;13.148;2023-09-12T09:24:44;25.40;99.90
6210;DHT22;3138;52.550;13.148;2023-09-12T09:27:32;25.50;99.90
6210;DHT22;3138;52.550;13.148;2023-09-12T09:30:00;25.60;99.90
6210;DHT22;3138;52.550;13.148;2023-09-12T09:32:29;25.80;99.90
6210;DHT22;3138;52.550;13.148;2023-09-12T09:34:55;25.80;99.90
6210;DHT22;3138;52.550;13.148;2023-09-12T09:37:23;25.80;99.90
6210;DHT22;3138;52.550;13.148;2023-09-12T09:39:51;26.20;99.90
6210;DHT22;3138;52.550;13.148;2023-09-12T09:42:19;26.20;99.90
6210;DHT22;3138;52.550;13.148;2023-09-12T09:44:47;26.30;99.90
6210;DHT22;3138;52.550;13.148;2023-09-12T09:47:15;26.50;99.90
6210;DHT22;3138;52.550;13.148;2023-09-12T09:49:45;26.80;99.90
6210;DHT22;3138;52.550;13.148;2023-09-12T09:52:12;26.80;99.90
6210;DHT22;3138;52.550;13.148;2023-09-12T09:54:43;27.00;99.90
6210;DHT22;3138;52.550;13.148;2023-09-12T09:57:11;27.10;99.90
6210;DHT22;3138;52.550;13.148;2023-09-12T09:59:39;27.30;99.90
6210;DHT22;3138;52.550;13.148;2023-09-12T10:02:12;27.20;99.90
6210;DHT22;3138;52.550;13.148;2023-09-12T10:04:44;27.30;99.90
6210;DHT22;3138;52.550;13.148;2023-09-12T10:07:11;27.30;99.90
6210;DHT22;3138;52.550;13.148;2023-09-12T10:09:38;27.10;99.90
6210;DHT22;3138;52.550;13.148;2023-09-12T10:12:06;27.40;99.90
6210;DHT22;3138;52.550;13.148;2023-09-12T10:14:33;27.40;99.90
6210;DHT22;3138;52.550;13.148;2023-09-12T10:17:03;27.60;99.90
6210;DHT22;3138;52.550;13.148;2023-09-12T10:19:35;27.60;99.90
6210;DHT22;3138;52.550;13.148;2023-09-12T10:22:06;27.30;99.90
6210;DHT22;3138;52.550;13.148;2023-09-12T10:24:36;27.40;99.90
6210;DHT22;3138;52.550;13.148;2023-09-12T10:27:05;27.40;99.90
6210;DHT22;3138;52.550;13.148;2023-09-12T10:29:32;27.20;99.90
6210;DHT22;3138;52.550;13.148;2023-09-12T10:32:02;27.30;99.90
6210;DHT22;3138;52.550;13.148;2023-09-12T10:34:30;27.50;99.90
6210;DHT22;3138;52.550;13.148;2023-09-12T10:36:59;27.50;99.90
6210;DHT22;3138;52.550;13.148;2023-09-12T10:39:27;27.50;99.90
6210;DHT22;3138;52.550;13.148;2023-09-12T10:41:55;27.50;99.90
6210;DHT22;3138;52.550;13.148;2023-09-12T10:44:24;27.40;99.90
6210;DHT22;3138;52.550;13.148;2023-09-12T10:46:52;27.40;99.90
6210;DHT22;3138;52.550;13.148;2023-09-12T10:49:21;27.20;99.90
6210;DHT22;3138;52.550;13.148;2023-09-12T10:51:48;27.30;99.90
6210;DHT22;3138;52.550;13.148;2023-09-12T10:54:22;27.20;99.90
6210;DHT22;3138;52.550;13.148;2023-09-12T10:57:02;27.20;99.90
6210;DHT22;3138;52.550;13.148;2023-09-12T10:59:29;27.30;99.90
6210;DHT22;3138;52.550;13.148;2023-09-12T11:02:29;27.60;99.90
6210;DHT22;3138;52.550;13.148;2023-09-12T11:04:57;27.40;99.90
6210;DHT22;3138;52.550;13.148;2023-09-12T11:07:31;27.70;99.90
6210;DHT22;3138;52.550;13.148;2023-09-12T11:10:19;27.50;99.90
6210;DHT22;3138;52.550;13.148;2023-09-12T11:12:47;27.30;99.90
6210;DHT22;3138;52.550;13.148;2023-09-12T11:15:15;27.50;99.90
6210;DHT22;3138;52.550;13.148;2023-09-12T11:17:43;27.20;99.90
6210;DHT22;3138;52.550;13.148;2023-09-12T11:20:12;27.60;99.90
6210;DHT22;3138;52.550;13.148;2023-09-12T11:22:41;27.80;99.90
6210;DHT22;3138;52.550;13.148;2023-09-12T11:25:18;27.90;99.90
6210;DHT22;3138;52.550;13.148;2023-09-12T11:28:03;27.70;99.90
6210;DHT22;3138;52.550;13.148;2023-09-12T11:30:30;27.30;99.90
6210;DHT22;3138;52.550;13.148;2023-09-12T11:32:58;27.20;99.90
6210;DHT22;3138;52.550;13.148;2023-09-12T11:35:27;27.30;99.90
6210;DHT22;3138;52.550;13.148;2023-09-12T11:37:55;27.50;99.90
6210;DHT22;3138;52.550;13.148;2023-09-12T11:40:25;27.80;99.90
6210;DHT22;3138;52.550;13.148;2023-09-12T11:42:52;27.60;99.90
6210;DHT22;3138;52.550;13.148;2023-09-12T11:45:20;27.60;99.90
6210;DHT22;3138;52.550;13.148;2023-09-12T11:47:48;27.60;99.90
6210;DHT22;3138;52.550;13.148;2023-09-12T11:50:31;27.70;99.90
6210;DHT22;3138;52.550;13.148;2023-09-12T11:53:01;27.70;99.90
6210;DHT22;3138;52.550;13.148;2023-09-12T11:55:31;27.70;99.90
6210;DHT22;3138;52.550;13.148;2023-09-12T11:57:58;27.90;99.90
6210;DHT22;3138;52.550;13.148;2023-09-12T12:00:25;27.90;99.90
6210;DHT22;3138;52.550;13.148;2023-09-12T12:02:53;27.90;99.90
6210;DHT22;3138;52.550;13.148;2023-09-12T12:05:20;27.90;99.90
6210;DHT22;3138;52.550;13.148;2023-09-12T12:07:49;28.20;99.90
6210;DHT22;3138;52.550;13.148;2023-09-12T12:10:16;28.10;99.90
6210;DHT22;3138;52.550;13.148;2023-09-12T12:12:44;28.10;99.90
6210;DHT22;3138;52.550;13.148;2023-09-12T12:15:13;27.90;99.90
6210;DHT22;3138;52.550;13.148;2023-09-12T12:17:41;27.90;99.90
6210;DHT22;3138;52.550;13.148;2023-09-12T12:20:09;27.90;99.90
6210;DHT22;3138;52.550;13.148;2023-09-12T12:22:37;28.00;99.90
6210;DHT22;3138;52.550;13.148;2023-09-12T12:25:09;28.10;99.90
6210;DHT22;3138;52.550;13.148;2023-09-12T12:27:37;28.10;99.90
6210;DHT22;3138;52.550;13.148;2023-09-12T12:30:06;28.10;99.90
6210;DHT22;3138;52.550;13.148;2023-09-12T12:32:34;28.10;99.90
6210;DHT22;3138;52.550;13.148;2023-09-12T12:35:01;27.90;99.90
6210;DHT22;3138;52.550;13.148;2023-09-12T12:37:29;28.10;99.90
6210;DHT22;3138;52.550;13.148;2023-09-12T12:39:57;28.30;99.90
6210;DHT22;3138;52.550;13.148;2023-09-12T12:42:28;28.20;99.90
6210;DHT22;3138;52.550;13.148;2023-09-12T12:44:59;28.50;99.90
6210;DHT22;3138;52.550;13.148;2023-09-12T12:47:25;28.50;99.90
6210;DHT22;3138;52.550;13.148;2023-09-12T12:49:54;28.60;99.90
6210;DHT22;3138;52.550;13.148;2023-09-12T12:52:24;28.40;99.90
6210;DHT22;3138;52.550;13.148;2023-09-12T12:54:51;28.50;99.90
6210;DHT22;3138;52.550;13.148;2023-09-12T12:57:20;28.30;99.90
6210;DHT22;3138;52.550;13.148;2023-09-12T12:59:48;28.30;99.90
6210;DHT22;3138;52.550;13.148;2023-09-12T13:02:16;28.30;99.90
6210;DHT22;3138;52.550;13.148;2023-09-12T13:04:44;28.40;99.90
6210;DHT22;3138;52.550;13.148;2023-09-12T13:07:11;28.50;99.90
6210;DHT22;3138;52.550;13.148;2023-09-12T13:09:38;28.50;99.90
6210;DHT22;3138;52.550;13.148;2023-09-12T13:12:06;28.50;99.90
6210;DHT22;3138;52.550;13.148;2023-09-12T13:14:34;28.90;99.90
6210;DHT22;3138;52.550;13.148;2023-09-12T13:17:02;29.00;99.90
6210;DHT22;3138;52.550;13.148;2023-09-12T13:19:29;28.90;99.90
6210;DHT22;3138;52.550;13.148;2023-09-12T13:21:56;29.00;99.90
6210;DHT22;3138;52.550;13.148;2023-09-12T13:24:23;28.80;99.90
6210;DHT22;3138;52.550;13.148;2023-09-12T13:26:50;28.60;99.90
6210;DHT22;3138;52.550;13.148;2023-09-12T13:29:17;28.90;99.90
6210;DHT22;3138;52.550;13.148;2023-09-12T13:31:43;28.90;99.90
6210;DHT22;3138;52.550;13.148;2023-09-12T13:34:12;29.10;99.90
6210;DHT22;3138;52.550;13.148;2023-09-12T13:36:38;29.10;99.90
6210;DHT22;3138;52.550;13.148;2023-09-12T13:39:06;29.30;99.90
6210;DHT22;3138;52.550;13.148;2023-09-12T13:41:33;28.90;99.90
6210;DHT22;3138;52.550;13.148;2023-09-12T13:44:00;28.90;99.90
6210;DHT22;3138;52.550;13.148;2023-09-12T13:46:27;28.80;99.90
6210;DHT22;3138;52.550;13.148;2023-09-12T13:48:54;28.70;99.90
6210;DHT22;3138;52.550;13.148;2023-09-12T13:51:24;28.50;99.90
6210;DHT22;3138;52.550;13.148;2023-09-12T13:53:50;28.20;99.90
6210;DHT22;3138;52.550;13.148;2023-09-12T13:56:17;28.10;99.90
6210;DHT22;3138;52.550;13.148;2023-09-12T13:58:44;28.00;99.90
6210;DHT22;3138;52.550;13.148;2023-09-12T14:01:11;28.00;99.90
6210;DHT22;3138;52.550;13.148;2023-09-12T14:03:37;28.00;99.90
6210;DHT22;3138;52.550;13.148;2023-09-12T14:06:04;27.60;99.90
6210;DHT22;3138;52.550;13.148;2023-09-12T14:08:33;27.20;99.90
6210;DHT22;3138;52.550;13.148;2023-09-12T14:10:59;26.90;99.90
6210;DHT22;3138;52.550;13.148;2023-09-12T14:13:26;26.60;99.90
6210;DHT22;3138;52.550;13.148;2023-09-12T14:15:53;26.30;99.90
6210;DHT22;3138;52.550;13.148;2023-09-12T14:18:20;26.30;99.90
6210;DHT22;3138;52.550;13.148;2023-09-12T14:20:47;26.30;99.90
6210;DHT22;3138;52.550;13.148;2023-09-12T14:23:15;26.10;99.90
6210;DHT22;3138;52.550;13.148;2023-09-12T14:25:43;25.90;99.90
6210;DHT22;3138;52.550;13.148;2023-09-12T14:28:10;25.80;99.90
6210;DHT22;3138;52.550;13.148;2023-09-12T14:30:36;25.60;99.90
6210;DHT22;3138;52.550;13.148;2023-09-12T14:33:09;25.50;99.90
6210;DHT22;3138;52.550;13.148;2023-09-12T14:35:37;25.50;99.90
6210;DHT22;3138;52.550;13.148;2023-09-12T14:38:04;25.50;99.90
6210;DHT22;3138;52.550;13.148;2023-09-12T14:40:31;25.50;99.90
6210;DHT22;3138;52.550;13.148;2023-09-12T14:42:59;25.70;99.90
6210;DHT22;3138;52.550;13.148;2023-09-12T14:45:27;25.70;99.90
6210;DHT22;3138;52.550;13.148;2023-09-12T14:47:54;25.70;99.90
6210;DHT22;3138;52.550;13.148;2023-09-12T14:50:21;25.80;99.90
6210;DHT22;3138;52.550;13.148;2023-09-12T14:52:49;25.80;99.90
6210;DHT22;3138;52.550;13.148;2023-09-12T14:55:16;25.70;99.90
6210;DHT22;3138;52.550;13.148;2023-09-12T14:57:43;25.70;99.90
6210;DHT22;3138;52.550;13.148;2023-09-12T15:00:12;25.70;99.90
6210;DHT22;3138;52.550;13.148;2023-09-12T15:02:39;25.80;99.90
6210;DHT22;3138;52.550;13.148;2023-09-12T15:05:07;25.80;99.90
6210;DHT22;3138;52.550;13.148;2023-09-12T15:07:34;25.80;99.90
6210;DHT22;3138;52.550;13.148;2023-09-12T15:10:03;25.70;99.90
6210;DHT22;3138;52.550;13.148;2023-09-12T15:12:30;25.50;99.90
6210;DHT22;3138;52.550;13.148;2023-09-12T15:14:57;25.50;99.90
6210;DHT22;3138;52.550;13.148;2023-09-12T15:17:25;25.40;99.90
6210;DHT22;3138;52.550;13.148;2023-09-12T15:19:52;25.40;99.90
6210;DHT22;3138;52.550;13.148;2023-09-12T15:22:19;25.30;99.90
6210;DHT22;3138;52.550;13.148;2023-09-12T15:24:46;25.40;99.90
6210;DHT22;3138;52.550;13.148;2023-09-12T15:27:13;25.40;99.90
6210;DHT22;3138;52.550;13.148;2023-09-12T15:29:40;25.50;99.90
6210;DHT22;3138;52.550;13.148;2023-09-12T15:32:06;25.50;99.90
6210;DHT22;3138;52.550;13.148;2023-09-12T15:34:35;25.50;99.90
6210;DHT22;3138;52.550;13.148;2023-09-12T15:37:06;25.50;99.90
6210;DHT22;3138;52.550;13.148;2023-09-12T15:39:34;25.60;99.90
6210;DHT22;3138;52.550;13.148;2023-09-12T15:42:01;25.70;99.90
6210;DHT22;3138;52.550;13.148;2023-09-12T15:44:28;25.90;99.90
6210;DHT22;3138;52.550;13.148;2023-09-12T15:46:55;25.90;99.90
6210;DHT22;3138;52.550;13.148;2023-09-12T15:49:22;25.90;99.90
6210;DHT22;3138;52.550;13.148;2023-09-12T15:51:51;25.90;99.90